Terminal Aerodrome Forecast
Issued by NWS

Home | Current Version | Previous Version | Text Only | Print | Product List | Glossary On
Versions: 1 2 3 4 5 6 7 8 9 10 11 12 13 14 15 16 17 18 19 20 21 22 23 24 25 26 27 28 29 30 31 32
000
FTUS45 KGJT 031250 AAA
TAFTEX
TAF AMD
KTEX 031250Z 0313/0412 00000KT P6SM VCTS SCT060CB BKN100
      TEMPO 0313/0315 -TSRA BKN060CB
     FM031800 26005KT P6SM VCSH SCT100 BKN180
     FM032100 20005KT P6SM VCTS SCT050CB BKN100
     FM040100 VRB02KT P6SM -SHRA BKN050
     FM040600 11006KT P6SM BKN120=

USA.gov is the U.S. government's official web portal to all federal, state and local government web resources and services.